sensor_id;sensor_type;location;lat;lon;timestamp;pressure;altitude;pressure_sealevel;temperature;humidity
57000;BME280;42891;50.006;21.964;2023-11-19T00:02:14;51217.09;;;-146.02;76.34
57000;BME280;42891;50.006;21.964;2023-11-19T00:06:15;51199.06;;;-146.02;76.34
57000;BME280;42891;50.006;21.964;2023-11-19T00:10:17;51205.06;;;-146.02;75.61
57000;BME280;42891;50.006;21.964;2023-11-19T00:14:21;51195.06;;;-146.02;75.49
57000;BME280;42891;50.006;21.964;2023-11-19T00:18:21;51189.03;;;-146.02;76.76
57000;BME280;42891;50.006;21.964;2023-11-19T00:22:22;51223.09;;;-146.02;75.51
57000;BME280;42891;50.006;21.964;2023-11-19T00:26:22;51165.00;;;-146.02;75.56
57000;BME280;42891;50.006;21.964;2023-11-19T00:30:22;51158.97;;;-146.02;74.98
57000;BME280;42891;50.006;21.964;2023-11-19T00:34:23;51185.03;;;-146.02;75.27
57000;BME280;42891;50.006;21.964;2023-11-19T00:38:23;51173.00;;;-146.02;75.86
57000;BME280;42891;50.006;21.964;2023-11-19T00:42:24;51233.13;;;-146.02;76.67
57000;BME280;42891;50.006;21.964;2023-11-19T00:46:24;51191.03;;;-146.02;76.46
57000;BME280;42891;50.006;21.964;2023-11-19T00:50:25;51167.00;;;-146.02;75.81
57000;BME280;42891;50.006;21.964;2023-11-19T00:54:25;51225.13;;;-146.02;76.01
57000;BME280;42891;50.006;21.964;2023-11-19T00:58:26;51221.09;;;-146.02;75.58
57000;BME280;42891;50.006;21.964;2023-11-19T01:02:27;51183.03;;;-146.02;75.72
57000;BME280;42891;50.006;21.964;2023-11-19T01:06:30;51215.09;;;-146.02;75.78
57000;BME280;42891;50.006;21.964;2023-11-19T01:10:30;51237.13;;;-146.02;76.54
57000;BME280;42891;50.006;21.964;2023-11-19T01:14:31;51197.06;;;-146.02;76.98
57000;BME280;42891;50.006;21.964;2023-11-19T01:18:31;51187.03;;;-146.02;76.74
57000;BME280;42891;50.006;21.964;2023-11-19T01:22:32;51203.06;;;-146.02;75.76
57000;BME280;42891;50.006;21.964;2023-11-19T01:26:32;51183.03;;;-146.02;75.08
57000;BME280;42891;50.006;21.964;2023-11-19T01:30:32;51201.06;;;-146.02;75.55
57000;BME280;42891;50.006;21.964;2023-11-19T01:34:33;51189.03;;;-146.02;76.15
57000;BME280;42891;50.006;21.964;2023-11-19T01:38:34;51187.03;;;-146.02;75.90
57000;BME280;42891;50.006;21.964;2023-11-19T01:42:38;51169.00;;;-146.02;75.53
57000;BME280;42891;50.006;21.964;2023-11-19T01:46:40;51193.06;;;-146.02;75.60
57000;BME280;42891;50.006;21.964;2023-11-19T01:50:42;51215.09;;;-146.02;76.21
57000;BME280;42891;50.006;21.964;2023-11-19T01:54:42;51217.09;;;-146.02;75.31
57000;BME280;42891;50.006;21.964;2023-11-19T01:58:44;51201.06;;;-146.02;75.97
57000;BME280;42891;50.006;21.964;2023-11-19T02:02:48;51205.06;;;-146.02;75.12
57000;BME280;42891;50.006;21.964;2023-11-19T02:06:51;51231.13;;;-146.02;75.46
57000;BME280;42891;50.006;21.964;2023-11-19T02:10:54;51211.09;;;-146.02;75.74
57000;BME280;42891;50.006;21.964;2023-11-19T02:14:57;51199.06;;;-146.02;76.04
57000;BME280;42891;50.006;21.964;2023-11-19T02:18:59;51193.06;;;-146.02;76.06
57000;BME280;42891;50.006;21.964;2023-11-19T02:22:59;51171.00;;;-146.02;75.99
57000;BME280;42891;50.006;21.964;2023-11-19T02:27:08;51185.03;;;-146.02;76.26
57000;BME280;42891;50.006;21.964;2023-11-19T02:31:10;51185.03;;;-146.02;75.64
57000;BME280;42891;50.006;21.964;2023-11-19T02:35:11;51179.03;;;-146.02;75.94
57000;BME280;42891;50.006;21.964;2023-11-19T02:39:11;51225.13;;;-146.02;75.88
57000;BME280;42891;50.006;21.964;2023-11-19T02:43:13;51233.13;;;-146.02;74.22
57000;BME280;42891;50.006;21.964;2023-11-19T02:47:13;51215.09;;;-146.02;74.76
57000;BME280;42891;50.006;21.964;2023-11-19T02:51:13;51201.06;;;-146.02;76.23
57000;BME280;42891;50.006;21.964;2023-11-19T02:55:14;51171.00;;;-146.02;76.61
57000;BME280;42891;50.006;21.964;2023-11-19T02:59:14;51215.09;;;-146.02;76.11
57000;BME280;42891;50.006;21.964;2023-11-19T03:03:28;51205.06;;;-146.02;75.49
57000;BME280;42891;50.006;21.964;2023-11-19T03:07:31;51209.09;;;-146.02;75.32
57000;BME280;42891;50.006;21.964;2023-11-19T03:11:31;51209.09;;;-146.02;76.10
57000;BME280;42891;50.006;21.964;2023-11-19T03:15:31;51223.09;;;-146.02;76.07
57000;BME280;42891;50.006;21.964;2023-11-19T03:19:31;51251.16;;;-146.02;76.30
57000;BME280;42891;50.006;21.964;2023-11-19T03:23:32;51207.06;;;-146.02;76.73
57000;BME280;42891;50.006;21.964;2023-11-19T03:27:32;51199.06;;;-146.02;75.75
57000;BME280;42891;50.006;21.964;2023-11-19T03:31:34;51177.03;;;-146.02;76.07
57000;BME280;42891;50.006;21.964;2023-11-19T03:35:34;51199.06;;;-146.02;76.20
57000;BME280;42891;50.006;21.964;2023-11-19T03:39:34;51181.03;;;-146.02;75.96
57000;BME280;42891;50.006;21.964;2023-11-19T03:43:34;51235.13;;;-146.02;75.79
57000;BME280;42891;50.006;21.964;2023-11-19T03:47:35;51193.06;;;-146.02;76.26
57000;BME280;42891;50.006;21.964;2023-11-19T03:51:35;51265.19;;;-146.02;75.84
57000;BME280;42891;50.006;21.964;2023-11-19T03:55:35;51197.06;;;-146.02;75.69
57000;BME280;42891;50.006;21.964;2023-11-19T03:59:36;51207.06;;;-146.02;75.67
57000;BME280;42891;50.006;21.964;2023-11-19T04:03:36;51169.00;;;-146.02;75.15
57000;BME280;42891;50.006;21.964;2023-11-19T04:07:37;51181.03;;;-146.02;75.07
57000;BME280;42891;50.006;21.964;2023-11-19T04:11:37;51209.09;;;-146.02;76.55
57000;BME280;42891;50.006;21.964;2023-11-19T04:15:38;51209.09;;;-146.02;76.48
57000;BME280;42891;50.006;21.964;2023-11-19T04:19:38;51189.03;;;-146.02;75.53
57000;BME280;42891;50.006;21.964;2023-11-19T04:23:41;51201.06;;;-146.02;76.02
57000;BME280;42891;50.006;21.964;2023-11-19T04:27:41;51201.06;;;-146.02;76.13
57000;BME280;42891;50.006;21.964;2023-11-19T04:31:41;51205.06;;;-146.02;75.84
57000;BME280;42891;50.006;21.964;2023-11-19T04:35:42;51197.06;;;-146.02;76.44
57000;BME280;42891;50.006;21.964;2023-11-19T04:39:44;51215.09;;;-146.02;76.64
57000;BME280;42891;50.006;21.964;2023-11-19T04:43:46;51203.06;;;-146.02;76.16
57000;BME280;42891;50.006;21.964;2023-11-19T04:47:46;51209.09;;;-146.02;76.02
57000;BME280;42891;50.006;21.964;2023-11-19T04:51:46;51185.03;;;-146.02;75.99
57000;BME280;42891;50.006;21.964;2023-11-19T04:55:47;51183.03;;;-146.02;75.16
57000;BME280;42891;50.006;21.964;2023-11-19T04:59:47;51191.03;;;-146.02;75.04
57000;BME280;42891;50.006;21.964;2023-11-19T05:03:48;51231.13;;;-146.02;74.70
57000;BME280;42891;50.006;21.964;2023-11-19T05:07:48;51233.13;;;-146.02;74.82
57000;BME280;42891;50.006;21.964;2023-11-19T05:11:48;51205.06;;;-146.02;75.42
57000;BME280;42891;50.006;21.964;2023-11-19T05:15:48;51199.06;;;-146.02;75.88
57000;BME280;42891;50.006;21.964;2023-11-19T05:19:49;51175.00;;;-146.02;76.20
57000;BME280;42891;50.006;21.964;2023-11-19T05:23:49;51207.06;;;-146.02;75.53
57000;BME280;42891;50.006;21.964;2023-11-19T05:27:50;51217.09;;;-146.02;75.56
57000;BME280;42891;50.006;21.964;2023-11-19T05:31:50;51209.09;;;-146.02;75.58
57000;BME280;42891;50.006;21.964;2023-11-19T05:35:50;51191.03;;;-146.02;75.91
57000;BME280;42891;50.006;21.964;2023-11-19T05:39:51;51191.03;;;-146.02;75.37
57000;BME280;42891;50.006;21.964;2023-11-19T05:43:51;51173.00;;;-146.02;76.16
57000;BME280;42891;50.006;21.964;2023-11-19T05:47:51;51209.09;;;-146.02;76.32
57000;BME280;42891;50.006;21.964;2023-11-19T05:51:52;51207.06;;;-146.02;76.26
57000;BME280;42891;50.006;21.964;2023-11-19T05:55:55;51229.13;;;-146.02;76.18
57000;BME280;42891;50.006;21.964;2023-11-19T05:59:56;51187.03;;;-146.02;76.68
57000;BME280;42891;50.006;21.964;2023-11-19T06:03:56;51189.03;;;-146.02;76.16
57000;BME280;42891;50.006;21.964;2023-11-19T06:07:57;51189.03;;;-146.02;75.77
57000;BME280;42891;50.006;21.964;2023-11-19T06:11:57;51197.06;;;-146.02;76.11
57000;BME280;42891;50.006;21.964;2023-11-19T06:15:58;51199.06;;;-146.02;76.02
57000;BME280;42891;50.006;21.964;2023-11-19T06:19:58;51203.06;;;-146.02;75.40
57000;BME280;42891;50.006;21.964;2023-11-19T06:23:58;51229.13;;;-146.02;75.57
57000;BME280;42891;50.006;21.964;2023-11-19T06:27:59;51185.03;;;-146.02;75.37
57000;BME280;42891;50.006;21.964;2023-11-19T06:31:59;51203.06;;;-146.02;75.64
57000;BME280;42891;50.006;21.964;2023-11-19T06:36:00;51221.09;;;-146.02;75.99
57000;BME280;42891;50.006;21.964;2023-11-19T06:40:00;51195.06;;;-146.02;75.83
57000;BME280;42891;50.006;21.964;2023-11-19T06:44:00;51233.13;;;-146.02;75.34
57000;BME280;42891;50.006;21.964;2023-11-19T06:48:01;51205.06;;;-146.02;74.74
57000;BME280;42891;50.006;21.964;2023-11-19T06:52:03;51177.03;;;-146.02;75.55
57000;BME280;42891;50.006;21.964;2023-11-19T06:56:04;51167.00;;;-146.02;75.09
57000;BME280;42891;50.006;21.964;2023-11-19T07:00:06;51221.09;;;-146.02;76.15
57000;BME280;42891;50.006;21.964;2023-11-19T07:04:07;51189.03;;;-146.02;76.26
57000;BME280;42891;50.006;21.964;2023-11-19T07:08:10;51215.09;;;-146.02;76.55
57000;BME280;42891;50.006;21.964;2023-11-19T07:12:11;51193.06;;;-146.02;76.02
57000;BME280;42891;50.006;21.964;2023-11-19T07:16:14;51169.00;;;-146.02;75.83
57000;BME280;42891;50.006;21.964;2023-11-19T07:20:15;51183.03;;;-146.02;75.95
57000;BME280;42891;50.006;21.964;2023-11-19T07:24:15;51163.00;;;-146.02;75.20
57000;BME280;42891;50.006;21.964;2023-11-19T07:28:16;51215.09;;;-146.02;75.21
57000;BME280;42891;50.006;21.964;2023-11-19T07:32:16;51213.09;;;-146.02;75.11
57000;BME280;42891;50.006;21.964;2023-11-19T07:36:18;51213.09;;;-146.02;75.61
57000;BME280;42891;50.006;21.964;2023-11-19T07:40:18;51181.03;;;-146.02;75.62
57000;BME280;42891;50.006;21.964;2023-11-19T07:44:19;51181.03;;;-146.02;76.18
57000;BME280;42891;50.006;21.964;2023-11-19T07:48:21;51181.03;;;-146.02;75.77
57000;BME280;42891;50.006;21.964;2023-11-19T07:52:23;51199.06;;;-146.02;75.02
57000;BME280;42891;50.006;21.964;2023-11-19T07:56:23;51205.06;;;-146.02;74.82
57000;BME280;42891;50.006;21.964;2023-11-19T08:00:24;51203.06;;;-146.02;76.63
57000;BME280;42891;50.006;21.964;2023-11-19T08:04:24;51209.09;;;-146.02;75.39
57000;BME280;42891;50.006;21.964;2023-11-19T08:08:24;51207.06;;;-146.02;75.22
57000;BME280;42891;50.006;21.964;2023-11-19T08:12:24;51201.06;;;-146.02;73.78
57000;BME280;42891;50.006;21.964;2023-11-19T08:16:25;51211.09;;;-146.02;75.20
57000;BME280;42891;50.006;21.964;2023-11-19T08:20:25;51185.03;;;-146.02;75.68
57000;BME280;42891;50.006;21.964;2023-11-19T08:24:25;51205.06;;;-146.02;74.28
57000;BME280;42891;50.006;21.964;2023-11-19T08:28:26;51207.06;;;-146.02;74.27
57000;BME280;42891;50.006;21.964;2023-11-19T08:32:27;51189.03;;;-146.02;73.50
57000;BME280;42891;50.006;21.964;2023-11-19T08:36:27;51205.06;;;-146.02;73.48
57000;BME280;42891;50.006;21.964;2023-11-19T08:40:28;51175.00;;;-146.02;74.59
57000;BME280;42891;50.006;21.964;2023-11-19T08:44:29;51189.03;;;-146.02;74.00
57000;BME280;42891;50.006;21.964;2023-11-19T08:48:30;51217.09;;;-146.02;72.97
57000;BME280;42891;50.006;21.964;2023-11-19T08:52:30;51207.06;;;-146.02;73.57
57000;BME280;42891;50.006;21.964;2023-11-19T08:56:31;51225.13;;;-146.02;73.07
57000;BME280;42891;50.006;21.964;2023-11-19T09:00:33;51245.16;;;-146.02;73.10
57000;BME280;42891;50.006;21.964;2023-11-19T09:04:33;51185.03;;;-146.02;73.36
57000;BME280;42891;50.006;21.964;2023-11-19T09:08:33;51225.13;;;-146.02;73.06
57000;BME280;42891;50.006;21.964;2023-11-19T09:12:34;51189.03;;;-146.02;74.12
57000;BME280;42891;50.006;21.964;2023-11-19T09:16:35;51213.09;;;-146.02;73.96
57000;BME280;42891;50.006;21.964;2023-11-19T09:20:35;51193.06;;;-146.02;73.16
57000;BME280;42891;50.006;21.964;2023-11-19T09:24:38;51197.06;;;-146.02;72.80
57000;BME280;42891;50.006;21.964;2023-11-19T09:28:38;51189.03;;;-146.02;71.88
57000;BME280;42891;50.006;21.964;2023-11-19T09:32:39;51161.00;;;-146.02;71.84
57000;BME280;42891;50.006;21.964;2023-11-19T09:36:40;51197.06;;;-146.02;72.37
57000;BME280;42891;50.006;21.964;2023-11-19T09:40:44;51199.06;;;-146.02;71.12
57000;BME280;42891;50.006;21.964;2023-11-19T09:44:44;51195.06;;;-146.02;70.60
57000;BME280;42891;50.006;21.964;2023-11-19T09:48:45;51199.06;;;-146.02;71.44
57000;BME280;42891;50.006;21.964;2023-11-19T09:52:48;51185.03;;;-146.02;71.40
57000;BME280;42891;50.006;21.964;2023-11-19T09:56:48;51193.06;;;-146.02;71.19
57000;BME280;42891;50.006;21.964;2023-11-19T10:00:49;51201.06;;;-146.02;71.64
57000;BME280;42891;50.006;21.964;2023-11-19T10:04:52;51177.03;;;-146.02;72.53
57000;BME280;42891;50.006;21.964;2023-11-19T10:08:53;51209.09;;;-146.02;71.85
57000;BME280;42891;50.006;21.964;2023-11-19T10:12:54;51197.06;;;-146.02;72.45
57000;BME280;42891;50.006;21.964;2023-11-19T10:16:55;51205.06;;;-146.02;71.51
57000;BME280;42891;50.006;21.964;2023-11-19T10:20:56;51177.03;;;-146.02;72.12
57000;BME280;42891;50.006;21.964;2023-11-19T10:24:56;51197.06;;;-146.02;72.22
57000;BME280;42891;50.006;21.964;2023-11-19T10:28:57;51217.09;;;-146.02;72.07
57000;BME280;42891;50.006;21.964;2023-11-19T10:33:08;51193.06;;;-146.02;71.54
57000;BME280;42891;50.006;21.964;2023-11-19T10:37:09;51211.09;;;-146.02;72.65
57000;BME280;42891;50.006;21.964;2023-11-19T10:41:10;51201.06;;;-146.02;72.61
57000;BME280;42891;50.006;21.964;2023-11-19T10:45:23;51199.06;;;-146.02;73.71
57000;BME280;42891;50.006;21.964;2023-11-19T10:49:24;51233.13;;;-146.02;73.63
57000;BME280;42891;50.006;21.964;2023-11-19T10:53:25;51165.00;;;-146.02;72.31
57000;BME280;42891;50.006;21.964;2023-11-19T10:57:30;51193.06;;;-146.02;72.90
57000;BME280;42891;50.006;21.964;2023-11-19T11:01:45;51193.06;;;-146.02;72.05
57000;BME280;42891;50.006;21.964;2023-11-19T11:05:47;51185.03;;;-146.02;72.34
57000;BME280;42891;50.006;21.964;2023-11-19T11:09:47;51203.06;;;-146.02;72.31
57000;BME280;42891;50.006;21.964;2023-11-19T11:13:50;51163.00;;;-146.02;72.47
57000;BME280;42891;50.006;21.964;2023-11-19T11:17:52;51179.03;;;-146.02;71.54
57000;BME280;42891;50.006;21.964;2023-11-19T11:21:57;51209.09;;;-146.02;70.69
57000;BME280;42891;50.006;21.964;2023-11-19T11:30:49;51173.00;;;-146.02;69.71
57000;BME280;42891;50.006;21.964;2023-11-19T11:39:07;51187.03;;;-146.02;70.15
57000;BME280;42891;50.006;21.964;2023-11-19T11:59:48;51191.03;;;-146.02;70.67
57000;BME280;42891;50.006;21.964;2023-11-19T12:03:50;51185.03;;;-146.02;70.30
57000;BME280;42891;50.006;21.964;2023-11-19T12:08:00;51169.00;;;-146.02;71.32
57000;BME280;42891;50.006;21.964;2023-11-19T12:16:14;51185.03;;;-146.02;69.49
57000;BME280;42891;50.006;21.964;2023-11-19T12:20:15;51163.00;;;-146.02;69.32
57000;BME280;42891;50.006;21.964;2023-11-19T12:24:16;51221.09;;;-146.02;70.01
57000;BME280;42891;50.006;21.964;2023-11-19T12:28:17;51179.03;;;-146.02;70.81
57000;BME280;42891;50.006;21.964;2023-11-19T12:32:18;51185.03;;;-146.02;70.53
57000;BME280;42891;50.006;21.964;2023-11-19T12:36:19;51187.03;;;-146.02;70.80
57000;BME280;42891;50.006;21.964;2023-11-19T12:40:25;51175.00;;;-146.02;70.22
57000;BME280;42891;50.006;21.964;2023-11-19T12:44:25;51197.06;;;-146.02;69.97
57000;BME280;42891;50.006;21.964;2023-11-19T12:48:26;51177.03;;;-146.02;69.93
57000;BME280;42891;50.006;21.964;2023-11-19T12:52:26;51211.09;;;-146.02;69.69
57000;BME280;42891;50.006;21.964;2023-11-19T12:56:27;51183.03;;;-146.02;69.90
57000;BME280;42891;50.006;21.964;2023-11-19T13:00:27;51185.03;;;-146.02;71.05
57000;BME280;42891;50.006;21.964;2023-11-19T13:04:29;51158.97;;;-146.02;70.41
57000;BME280;42891;50.006;21.964;2023-11-19T13:08:40;51191.03;;;-146.02;70.46
57000;BME280;42891;50.006;21.964;2023-11-19T13:12:41;51189.03;;;-146.02;70.58
57000;BME280;42891;50.006;21.964;2023-11-19T13:16:41;51189.03;;;-146.02;70.68
57000;BME280;42891;50.006;21.964;2023-11-19T13:20:42;51175.00;;;-146.02;69.85
57000;BME280;42891;50.006;21.964;2023-11-19T13:24:43;51185.03;;;-146.02;69.87
57000;BME280;42891;50.006;21.964;2023-11-19T13:28:43;51156.97;;;-146.02;70.00
57000;BME280;42891;50.006;21.964;2023-11-19T13:32:44;51173.00;;;-146.02;70.43
57000;BME280;42891;50.006;21.964;2023-11-19T13:36:46;51193.06;;;-146.02;70.55
57000;BME280;42891;50.006;21.964;2023-11-19T13:40:46;51175.00;;;-146.02;70.69
57000;BME280;42891;50.006;21.964;2023-11-19T13:44:46;51205.06;;;-146.02;70.44
57000;BME280;42891;50.006;21.964;2023-11-19T13:48:47;51203.06;;;-146.02;70.40
57000;BME280;42891;50.006;21.964;2023-11-19T13:52:49;51209.09;;;-146.02;70.63
57000;BME280;42891;50.006;21.964;2023-11-19T13:56:49;51173.00;;;-146.02;71.00
57000;BME280;42891;50.006;21.964;2023-11-19T14:00:52;51213.09;;;-146.02;70.87
57000;BME280;42891;50.006;21.964;2023-11-19T14:04:53;51197.06;;;-146.02;71.08
57000;BME280;42891;50.006;21.964;2023-11-19T14:08:54;51199.06;;;-146.02;71.46
57000;BME280;42891;50.006;21.964;2023-11-19T14:12:54;51175.00;;;-146.02;71.76
57000;BME280;42891;50.006;21.964;2023-11-19T14:16:54;51213.09;;;-146.02;71.89
57000;BME280;42891;50.006;21.964;2023-11-19T14:20:55;51146.97;;;-146.02;72.01
57000;BME280;42891;50.006;21.964;2023-11-19T14:24:55;51213.09;;;-146.02;72.34
57000;BME280;42891;50.006;21.964;2023-11-19T14:28:55;51187.03;;;-146.02;72.65
57000;BME280;42891;50.006;21.964;2023-11-19T14:32:55;51209.09;;;-146.02;73.46
57000;BME280;42891;50.006;21.964;2023-11-19T14:36:56;51177.03;;;-146.02;73.57
57000;BME280;42891;50.006;21.964;2023-11-19T14:40:57;51181.03;;;-146.02;74.14
57000;BME280;42891;50.006;21.964;2023-11-19T14:44:59;51225.13;;;-146.02;75.04
57000;BME280;42891;50.006;21.964;2023-11-19T14:48:59;51179.03;;;-146.02;75.74
57000;BME280;42891;50.006;21.964;2023-11-19T14:53:00;51158.97;;;-146.02;75.98
57000;BME280;42891;50.006;21.964;2023-11-19T14:57:00;51148.97;;;-146.02;76.36
57000;BME280;42891;50.006;21.964;2023-11-19T15:01:01;51189.03;;;-146.02;76.44
57000;BME280;42891;50.006;21.964;2023-11-19T15:05:04;51207.06;;;-146.02;77.08
57000;BME280;42891;50.006;21.964;2023-11-19T15:09:05;51185.03;;;-146.02;77.81
57000;BME280;42891;50.006;21.964;2023-11-19T15:13:07;51205.06;;;-146.02;77.85
57000;BME280;42891;50.006;21.964;2023-11-19T15:17:09;51211.09;;;-146.02;78.35
57000;BME280;42891;50.006;21.964;2023-11-19T15:21:09;51215.09;;;-146.02;78.48
57000;BME280;42891;50.006;21.964;2023-11-19T15:25:09;51171.00;;;-146.02;78.31
57000;BME280;42891;50.006;21.964;2023-11-19T15:29:10;51209.09;;;-146.02;77.97
57000;BME280;42891;50.006;21.964;2023-11-19T15:33:10;51201.06;;;-146.02;77.68
57000;BME280;42891;50.006;21.964;2023-11-19T15:37:11;51165.00;;;-146.02;77.63
57000;BME280;42891;50.006;21.964;2023-11-19T15:41:13;51209.09;;;-146.02;77.92
57000;BME280;42891;50.006;21.964;2023-11-19T15:45:13;51205.06;;;-146.02;77.51
57000;BME280;42891;50.006;21.964;2023-11-19T15:49:13;51185.03;;;-146.02;77.38
57000;BME280;42891;50.006;21.964;2023-11-19T15:53:14;51195.06;;;-146.02;77.42
57000;BME280;42891;50.006;21.964;2023-11-19T15:57:14;51171.00;;;-146.02;77.08
57000;BME280;42891;50.006;21.964;2023-11-19T16:01:15;51213.09;;;-146.02;77.19
57000;BME280;42891;50.006;21.964;2023-11-19T16:05:15;51209.09;;;-146.02;77.28
57000;BME280;42891;50.006;21.964;2023-11-19T16:09:15;51215.09;;;-146.02;77.61
57000;BME280;42891;50.006;21.964;2023-11-19T16:13:19;51187.03;;;-146.02;77.62
57000;BME280;42891;50.006;21.964;2023-11-19T16:17:19;51207.06;;;-146.02;77.76
57000;BME280;42891;50.006;21.964;2023-11-19T16:21:20;51227.13;;;-146.02;77.53
57000;BME280;42891;50.006;21.964;2023-11-19T16:25:20;51209.09;;;-146.02;77.62
57000;BME280;42891;50.006;21.964;2023-11-19T16:29:20;51187.03;;;-146.02;77.90
57000;BME280;42891;50.006;21.964;2023-11-19T16:33:20;51171.00;;;-146.02;77.94
57000;BME280;42891;50.006;21.964;2023-11-19T16:37:21;51185.03;;;-146.02;77.95
57000;BME280;42891;50.006;21.964;2023-11-19T16:41:21;51181.03;;;-146.02;77.85
57000;BME280;42891;50.006;21.964;2023-11-19T16:45:22;51203.06;;;-146.02;78.06
57000;BME280;42891;50.006;21.964;2023-11-19T16:49:23;51177.03;;;-146.02;77.99
57000;BME280;42891;50.006;21.964;2023-11-19T16:53:23;51193.06;;;-146.02;78.13
57000;BME280;42891;50.006;21.964;2023-11-19T16:57:25;51219.09;;;-146.02;78.08
57000;BME280;42891;50.006;21.964;2023-11-19T17:01:27;51215.09;;;-146.02;78.73
57000;BME280;42891;50.006;21.964;2023-11-19T17:05:27;51207.06;;;-146.02;78.74
57000;BME280;42891;50.006;21.964;2023-11-19T17:09:28;51187.03;;;-146.02;78.93
57000;BME280;42891;50.006;21.964;2023-11-19T17:13:30;51187.03;;;-146.02;78.82
57000;BME280;42891;50.006;21.964;2023-11-19T17:17:32;51165.00;;;-146.02;79.04
57000;BME280;42891;50.006;21.964;2023-11-19T17:21:35;51177.03;;;-146.02;79.73
57000;BME280;42891;50.006;21.964;2023-11-19T17:25:35;51187.03;;;-146.02;79.82
57000;BME280;42891;50.006;21.964;2023-11-19T17:29:35;51185.03;;;-146.02;80.10
57000;BME280;42891;50.006;21.964;2023-11-19T17:33:36;51211.09;;;-146.02;80.20
57000;BME280;42891;50.006;21.964;2023-11-19T17:37:36;51189.03;;;-146.02;80.29
57000;BME280;42891;50.006;21.964;2023-11-19T17:41:37;51185.03;;;-146.02;80.47
57000;BME280;42891;50.006;21.964;2023-11-19T17:45:38;51183.03;;;-146.02;80.43
57000;BME280;42891;50.006;21.964;2023-11-19T17:49:40;51219.09;;;-146.02;79.97
57000;BME280;42891;50.006;21.964;2023-11-19T17:53:40;51215.09;;;-146.02;80.38
57000;BME280;42891;50.006;21.964;2023-11-19T17:57:41;51217.09;;;-146.02;80.33
57000;BME280;42891;50.006;21.964;2023-11-19T18:01:41;51207.06;;;-146.02;80.44
57000;BME280;42891;50.006;21.964;2023-11-19T18:05:41;51197.06;;;-146.02;80.82
57000;BME280;42891;50.006;21.964;2023-11-19T18:09:41;51239.13;;;-146.02;81.36
57000;BME280;42891;50.006;21.964;2023-11-19T18:13:44;51193.06;;;-146.02;81.29
57000;BME280;42891;50.006;21.964;2023-11-19T18:17:44;51239.13;;;-146.02;80.93
57000;BME280;42891;50.006;21.964;2023-11-19T18:21:45;51197.06;;;-146.02;81.09
57000;BME280;42891;50.006;21.964;2023-11-19T18:25:46;51225.13;;;-146.02;81.07
57000;BME280;42891;50.006;21.964;2023-11-19T18:29:46;51209.09;;;-146.02;80.71
57000;BME280;42891;50.006;21.964;2023-11-19T18:33:47;51211.09;;;-146.02;80.61
57000;BME280;42891;50.006;21.964;2023-11-19T18:37:48;51233.13;;;-146.02;80.69
57000;BME280;42891;50.006;21.964;2023-11-19T18:41:48;51187.03;;;-146.02;80.44
57000;BME280;42891;50.006;21.964;2023-11-19T18:45:49;51205.06;;;-146.02;80.25
57000;BME280;42891;50.006;21.964;2023-11-19T18:49:49;51221.09;;;-146.02;80.69
57000;BME280;42891;50.006;21.964;2023-11-19T18:53:51;51193.06;;;-146.02;80.93
57000;BME280;42891;50.006;21.964;2023-11-19T18:57:51;51167.00;;;-146.02;81.01
57000;BME280;42891;50.006;21.964;2023-11-19T19:01:52;51201.06;;;-146.02;81.03
57000;BME280;42891;50.006;21.964;2023-11-19T19:05:52;51209.09;;;-146.02;81.25
57000;BME280;42891;50.006;21.964;2023-11-19T19:09:54;51209.09;;;-146.02;81.29
57000;BME280;42891;50.006;21.964;2023-11-19T19:13:54;51225.13;;;-146.02;81.43
57000;BME280;42891;50.006;21.964;2023-11-19T19:17:55;51193.06;;;-146.02;81.78
57000;BME280;42891;50.006;21.964;2023-11-19T19:21:56;51245.16;;;-146.02;82.04
57000;BME280;42891;50.006;21.964;2023-11-19T19:25:57;51179.03;;;-146.02;81.74
57000;BME280;42891;50.006;21.964;2023-11-19T19:29:57;51177.03;;;-146.02;81.75
57000;BME280;42891;50.006;21.964;2023-11-19T19:33:58;51209.09;;;-146.02;82.01
57000;BME280;42891;50.006;21.964;2023-11-19T19:37:58;51219.09;;;-146.02;82.09
57000;BME280;42891;50.006;21.964;2023-11-19T19:41:59;51221.09;;;-146.02;82.12
57000;BME280;42891;50.006;21.964;2023-11-19T19:46:01;51187.03;;;-146.02;82.47
57000;BME280;42891;50.006;21.964;2023-11-19T19:50:01;51183.03;;;-146.02;82.05
57000;BME280;42891;50.006;21.964;2023-11-19T19:54:01;51209.09;;;-146.02;82.20
57000;BME280;42891;50.006;21.964;2023-11-19T19:58:02;51223.09;;;-146.02;82.47
57000;BME280;42891;50.006;21.964;2023-11-19T20:02:04;51207.06;;;-146.02;82.74
57000;BME280;42891;50.006;21.964;2023-11-19T20:06:05;51199.06;;;-146.02;83.43
57000;BME280;42891;50.006;21.964;2023-11-19T20:10:11;51201.06;;;-146.02;83.50
57000;BME280;42891;50.006;21.964;2023-11-19T20:14:12;51185.03;;;-146.02;83.82
57000;BME280;42891;50.006;21.964;2023-11-19T20:18:12;51185.03;;;-146.02;83.79
57000;BME280;42891;50.006;21.964;2023-11-19T20:22:14;51201.06;;;-146.02;83.79
57000;BME280;42891;50.006;21.964;2023-11-19T20:26:14;51217.09;;;-146.02;83.87
57000;BME280;42891;50.006;21.964;2023-11-19T20:30:18;51181.03;;;-146.02;84.07
57000;BME280;42891;50.006;21.964;2023-11-19T20:34:19;51205.06;;;-146.02;84.28
57000;BME280;42891;50.006;21.964;2023-11-19T20:38:19;51209.09;;;-146.02;84.08
57000;BME280;42891;50.006;21.964;2023-11-19T20:42:20;51229.13;;;-146.02;84.19
57000;BME280;42891;50.006;21.964;2023-11-19T20:46:20;51217.09;;;-146.02;84.09
57000;BME280;42891;50.006;21.964;2023-11-19T20:50:20;51175.00;;;-146.02;83.97
57000;BME280;42891;50.006;21.964;2023-11-19T20:54:24;51158.97;;;-146.02;83.50
57000;BME280;42891;50.006;21.964;2023-11-19T20:58:25;51187.03;;;-146.02;84.01